sensor_id;sensor_type;location;lat;lon;timestamp;pressure;altitude;pressure_sealevel;temperature;humidity
71857;BME280;63344;46.980;28.882;2024-02-04T00:00:05;100304.09;;;8.88;59.84
71857;BME280;63344;46.980;28.882;2024-02-04T00:02:33;100318.13;;;8.90;60.01
71857;BME280;63344;46.980;28.882;2024-02-04T00:05:00;100309.69;;;8.78;59.76
71857;BME280;63344;46.980;28.882;2024-02-04T00:07:29;100303.09;;;8.67;60.26
71857;BME280;63344;46.980;28.882;2024-02-04T00:09:59;100303.47;;;8.56;60.12
71857;BME280;63344;46.980;28.882;2024-02-04T00:12:26;100316.91;;;8.50;60.60
71857;BME280;63344;46.980;28.882;2024-02-04T00:14:54;100285.44;;;8.15;60.62
71857;BME280;63344;46.980;28.882;2024-02-04T00:17:21;100323.97;;;8.23;61.08
71857;BME280;63344;46.980;28.882;2024-02-04T00:19:49;100318.84;;;8.18;61.44
71857;BME280;63344;46.980;28.882;2024-02-04T00:22:16;100312.00;;;8.12;61.77
71857;BME280;63344;46.980;28.882;2024-02-04T00:24:45;100322.09;;;8.26;61.79
71857;BME280;63344;46.980;28.882;2024-02-04T00:27:15;100316.72;;;8.29;61.62
71857;BME280;63344;46.980;28.882;2024-02-04T00:29:43;100312.06;;;8.36;61.63
71857;BME280;63344;46.980;28.882;2024-02-04T00:32:12;100311.66;;;8.48;61.54
71857;BME280;63344;46.980;28.882;2024-02-04T00:34:39;100306.91;;;8.58;61.31
71857;BME280;63344;46.980;28.882;2024-02-04T00:37:07;100320.69;;;8.68;61.03
71857;BME280;63344;46.980;28.882;2024-02-04T00:39:34;100308.44;;;8.65;61.34
71857;BME280;63344;46.980;28.882;2024-02-04T00:42:03;100318.69;;;8.74;60.88
71857;BME280;63344;46.980;28.882;2024-02-04T00:44:30;100319.50;;;8.76;61.03
71857;BME280;63344;46.980;28.882;2024-02-04T00:46:58;100302.91;;;8.71;60.64
71857;BME280;63344;46.980;28.882;2024-02-04T00:49:26;100322.00;;;8.81;60.50
71857;BME280;63344;46.980;28.882;2024-02-04T00:51:54;100309.88;;;8.74;60.62
71857;BME280;63344;46.980;28.882;2024-02-04T00:54:21;100312.53;;;8.74;60.36
71857;BME280;63344;46.980;28.882;2024-02-04T00:56:49;100307.50;;;8.66;60.50
71857;BME280;63344;46.980;28.882;2024-02-04T00:59:17;100301.75;;;8.55;60.56
71857;BME280;63344;46.980;28.882;2024-02-04T01:01:45;100318.09;;;8.66;60.33
71857;BME280;63344;46.980;28.882;2024-02-04T01:04:12;100327.66;;;8.70;60.44
71857;BME280;63344;46.980;28.882;2024-02-04T01:06:40;100286.94;;;8.49;60.32
71857;BME280;63344;46.980;28.882;2024-02-04T01:09:25;100328.59;;;8.69;60.53
71857;BME280;63344;46.980;28.882;2024-02-04T01:11:54;100335.59;;;8.70;60.45
71857;BME280;63344;46.980;28.882;2024-02-04T01:14:22;100336.53;;;8.69;60.61
71857;BME280;63344;46.980;28.882;2024-02-04T01:16:50;100328.00;;;8.61;60.39
71857;BME280;63344;46.980;28.882;2024-02-04T01:19:17;100330.53;;;8.64;60.54
71857;BME280;63344;46.980;28.882;2024-02-04T01:21:46;100305.09;;;8.60;60.59
71857;BME280;63344;46.980;28.882;2024-02-04T01:24:13;100321.50;;;8.70;60.59
71857;BME280;63344;46.980;28.882;2024-02-04T01:26:41;100329.13;;;8.79;60.25
71857;BME280;63344;46.980;28.882;2024-02-04T01:29:08;100322.91;;;8.80;60.72
71857;BME280;63344;46.980;28.882;2024-02-04T01:31:35;100335.38;;;8.76;60.54
71857;BME280;63344;46.980;28.882;2024-02-04T01:34:04;100317.66;;;8.78;60.63
71857;BME280;63344;46.980;28.882;2024-02-04T01:36:31;100313.16;;;8.81;60.26
71857;BME280;63344;46.980;28.882;2024-02-04T01:39:01;100325.41;;;8.85;60.57
71857;BME280;63344;46.980;28.882;2024-02-04T01:41:29;100339.59;;;8.82;60.63
71857;BME280;63344;46.980;28.882;2024-02-04T01:43:57;100329.88;;;8.83;60.87
71857;BME280;63344;46.980;28.882;2024-02-04T01:46:26;100346.34;;;8.91;61.15
71857;BME280;63344;46.980;28.882;2024-02-04T01:48:53;100341.69;;;8.97;61.11
71857;BME280;63344;46.980;28.882;2024-02-04T01:51:21;100342.44;;;9.01;61.92
71857;BME280;63344;46.980;28.882;2024-02-04T01:53:55;100332.81;;;8.98;62.72
71857;BME280;63344;46.980;28.882;2024-02-04T01:56:24;100333.66;;;9.01;63.16
71857;BME280;63344;46.980;28.882;2024-02-04T01:58:51;100337.16;;;9.01;63.49
71857;BME280;63344;46.980;28.882;2024-02-04T02:01:20;100292.81;;;8.83;63.75
71857;BME280;63344;46.980;28.882;2024-02-04T02:03:49;100325.63;;;9.02;63.58
71857;BME280;63344;46.980;28.882;2024-02-04T02:06:19;100316.75;;;9.03;63.78
71857;BME280;63344;46.980;28.882;2024-02-04T02:08:48;100305.59;;;8.95;63.91
71857;BME280;63344;46.980;28.882;2024-02-04T02:11:40;100320.09;;;9.08;63.53
71857;BME280;63344;46.980;28.882;2024-02-04T02:14:13;100323.66;;;9.07;63.34
71857;BME280;63344;46.980;28.882;2024-02-04T02:16:44;100313.31;;;9.01;63.75
71857;BME280;63344;46.980;28.882;2024-02-04T02:24:57;100320.50;;;8.97;63.43
71857;BME280;63344;46.980;28.882;2024-02-04T02:27:28;100313.88;;;8.86;63.72
71857;BME280;63344;46.980;28.882;2024-02-04T02:29:55;100327.97;;;8.86;63.59
71857;BME280;63344;46.980;28.882;2024-02-04T02:32:23;100316.75;;;8.80;63.38
71857;BME280;63344;46.980;28.882;2024-02-04T02:34:51;100316.16;;;8.71;63.38
71857;BME280;63344;46.980;28.882;2024-02-04T02:37:40;100313.75;;;8.65;63.02
71857;BME280;63344;46.980;28.882;2024-02-04T02:40:32;100322.03;;;8.54;63.21
71857;BME280;63344;46.980;28.882;2024-02-04T02:43:03;100316.38;;;8.38;63.71
71857;BME280;63344;46.980;28.882;2024-02-04T02:45:31;100308.41;;;8.15;64.07
71857;BME280;63344;46.980;28.882;2024-02-04T02:48:00;100290.34;;;8.01;63.72
71857;BME280;63344;46.980;28.882;2024-02-04T02:50:28;100275.16;;;7.81;63.48
71857;BME280;63344;46.980;28.882;2024-02-04T02:52:55;100283.38;;;7.72;63.61
71857;BME280;63344;46.980;28.882;2024-02-04T02:55:23;100303.34;;;7.81;63.46
71857;BME280;63344;46.980;28.882;2024-02-04T02:57:52;100318.53;;;7.74;63.44
71857;BME280;63344;46.980;28.882;2024-02-04T03:00:20;100271.81;;;7.48;63.27
71857;BME280;63344;46.980;28.882;2024-02-04T03:02:48;100315.53;;;7.58;63.57
71857;BME280;63344;46.980;28.882;2024-02-04T03:05:17;100296.63;;;7.42;63.41
71857;BME280;63344;46.980;28.882;2024-02-04T03:07:52;100299.31;;;7.41;63.46
71857;BME280;63344;46.980;28.882;2024-02-04T03:10:20;100321.03;;;7.50;63.60
71857;BME280;63344;46.980;28.882;2024-02-04T03:12:48;100326.31;;;7.50;63.39
71857;BME280;63344;46.980;28.882;2024-02-04T03:15:19;100296.84;;;7.36;63.24
71857;BME280;63344;46.980;28.882;2024-02-04T03:17:46;100319.34;;;7.49;63.32
71857;BME280;63344;46.980;28.882;2024-02-04T03:20:13;100295.13;;;7.35;63.36
71857;BME280;63344;46.980;28.882;2024-02-04T03:22:41;100310.66;;;7.44;63.17
71857;BME280;63344;46.980;28.882;2024-02-04T03:25:09;100308.41;;;7.32;63.23
71857;BME280;63344;46.980;28.882;2024-02-04T03:27:37;100326.81;;;7.35;63.36
71857;BME280;63344;46.980;28.882;2024-02-04T03:30:07;100329.47;;;7.35;62.98
71857;BME280;63344;46.980;28.882;2024-02-04T03:32:34;100318.00;;;7.34;63.26
71857;BME280;63344;46.980;28.882;2024-02-04T03:35:03;100318.16;;;7.30;62.92
71857;BME280;63344;46.980;28.882;2024-02-04T03:37:32;100305.19;;;7.22;62.48
71857;BME280;63344;46.980;28.882;2024-02-04T03:40:01;100311.06;;;7.32;62.59
71857;BME280;63344;46.980;28.882;2024-02-04T03:42:29;100336.22;;;7.44;62.92
71857;BME280;63344;46.980;28.882;2024-02-04T03:44:56;100311.81;;;7.35;62.35
71857;BME280;63344;46.980;28.882;2024-02-04T03:47:24;100323.28;;;7.34;62.41
71857;BME280;63344;46.980;28.882;2024-02-04T03:49:52;100328.13;;;7.20;62.53
71857;BME280;63344;46.980;28.882;2024-02-04T03:52:20;100324.03;;;7.10;62.59
71857;BME280;63344;46.980;28.882;2024-02-04T03:54:47;100328.50;;;7.08;62.52
71857;BME280;63344;46.980;28.882;2024-02-04T03:57:16;100325.06;;;7.04;62.48
71857;BME280;63344;46.980;28.882;2024-02-04T03:59:46;100343.34;;;7.12;62.82
71857;BME280;63344;46.980;28.882;2024-02-04T04:02:14;100348.59;;;7.13;62.71
71857;BME280;63344;46.980;28.882;2024-02-04T04:04:44;100319.19;;;6.94;62.29
71857;BME280;63344;46.980;28.882;2024-02-04T04:07:14;100329.47;;;7.05;62.03
71857;BME280;63344;46.980;28.882;2024-02-04T04:09:42;100344.13;;;7.15;62.40
71857;BME280;63344;46.980;28.882;2024-02-04T04:12:10;100330.06;;;7.15;61.97
71857;BME280;63344;46.980;28.882;2024-02-04T04:14:37;100318.78;;;7.08;61.74
71857;BME280;63344;46.980;28.882;2024-02-04T04:17:04;100343.78;;;7.26;62.06
71857;BME280;63344;46.980;28.882;2024-02-04T04:19:32;100355.22;;;7.27;61.81
71857;BME280;63344;46.980;28.882;2024-02-04T04:22:03;100326.97;;;7.29;61.73
71857;BME280;63344;46.980;28.882;2024-02-04T04:24:31;100325.84;;;7.37;61.60
71857;BME280;63344;46.980;28.882;2024-02-04T04:26:59;100302.78;;;7.43;61.27
71857;BME280;63344;46.980;28.882;2024-02-04T04:29:26;100310.47;;;7.50;60.94
71857;BME280;63344;46.980;28.882;2024-02-04T04:31:53;100283.63;;;7.36;60.50
71857;BME280;63344;46.980;28.882;2024-02-04T04:34:21;100317.38;;;7.54;60.78
71857;BME280;63344;46.980;28.882;2024-02-04T04:36:48;100329.41;;;7.65;60.02
71857;BME280;63344;46.980;28.882;2024-02-04T04:39:16;100314.03;;;7.77;59.80
71857;BME280;63344;46.980;28.882;2024-02-04T04:41:44;100325.06;;;7.90;59.42
71857;BME280;63344;46.980;28.882;2024-02-04T04:44:12;100331.03;;;7.97;58.64
71857;BME280;63344;46.980;28.882;2024-02-04T04:46:41;100311.59;;;7.98;58.79
71857;BME280;63344;46.980;28.882;2024-02-04T04:49:09;100307.97;;;8.01;58.46
71857;BME280;63344;46.980;28.882;2024-02-04T04:51:37;100316.63;;;8.06;58.25
71857;BME280;63344;46.980;28.882;2024-02-04T04:54:07;100323.50;;;8.11;58.71
71857;BME280;63344;46.980;28.882;2024-02-04T04:56:39;100327.22;;;8.06;58.57
71857;BME280;63344;46.980;28.882;2024-02-04T04:59:09;100302.41;;;7.83;58.77
71857;BME280;63344;46.980;28.882;2024-02-04T05:01:37;100289.44;;;7.75;58.79
71857;BME280;63344;46.980;28.882;2024-02-04T05:04:10;100308.81;;;7.74;59.35
71857;BME280;63344;46.980;28.882;2024-02-04T05:06:40;100282.03;;;7.58;59.36
71857;BME280;63344;46.980;28.882;2024-02-04T05:09:40;100328.91;;;7.80;59.62
71857;BME280;63344;46.980;28.882;2024-02-04T05:12:09;100290.97;;;7.54;59.59
71857;BME280;63344;46.980;28.882;2024-02-04T05:14:36;100308.25;;;7.65;59.87
71857;BME280;63344;46.980;28.882;2024-02-04T05:17:04;100291.03;;;7.53;60.25
71857;BME280;63344;46.980;28.882;2024-02-04T05:19:32;100299.00;;;7.51;60.20
71857;BME280;63344;46.980;28.882;2024-02-04T05:22:08;100330.22;;;7.67;60.45
71857;BME280;63344;46.980;28.882;2024-02-04T05:24:36;100326.25;;;7.53;61.15
71857;BME280;63344;46.980;28.882;2024-02-04T05:27:04;100332.31;;;7.57;61.30
71857;BME280;63344;46.980;28.882;2024-02-04T05:29:31;100341.94;;;7.58;61.35
71857;BME280;63344;46.980;28.882;2024-02-04T05:31:59;100355.94;;;7.62;61.72
71857;BME280;63344;46.980;28.882;2024-02-04T05:34:27;100349.88;;;7.58;61.52
71857;BME280;63344;46.980;28.882;2024-02-04T05:36:54;100342.63;;;7.65;61.67
71857;BME280;63344;46.980;28.882;2024-02-04T05:39:21;100322.63;;;7.56;61.75
71857;BME280;63344;46.980;28.882;2024-02-04T05:41:50;100349.38;;;7.75;61.28
71857;BME280;63344;46.980;28.882;2024-02-04T05:44:21;100341.59;;;7.69;61.23
71857;BME280;63344;46.980;28.882;2024-02-04T05:47:02;100325.81;;;7.67;61.44
71857;BME280;63344;46.980;28.882;2024-02-04T05:49:44;100344.16;;;7.72;61.11
71857;BME280;63344;46.980;28.882;2024-02-04T05:52:42;100332.69;;;7.73;60.95
71857;BME280;63344;46.980;28.882;2024-02-04T05:55:26;100335.13;;;7.79;60.92
71857;BME280;63344;46.980;28.882;2024-02-04T05:57:53;100336.81;;;7.82;61.25
71857;BME280;63344;46.980;28.882;2024-02-04T06:00:20;100332.41;;;7.81;61.25
71857;BME280;63344;46.980;28.882;2024-02-04T06:02:47;100295.13;;;7.63;60.88
71857;BME280;63344;46.980;28.882;2024-02-04T06:05:15;100319.28;;;7.79;60.96
71857;BME280;63344;46.980;28.882;2024-02-04T06:07:42;100314.88;;;7.78;60.98
71857;BME280;63344;46.980;28.882;2024-02-04T06:10:10;100291.13;;;7.76;60.88
71857;BME280;63344;46.980;28.882;2024-02-04T06:12:37;100295.28;;;7.85;60.82
71857;BME280;63344;46.980;28.882;2024-02-04T06:15:14;100322.31;;;8.20;60.63
71857;BME280;63344;46.980;28.882;2024-02-04T06:17:42;100336.09;;;8.30;60.35
71857;BME280;63344;46.980;28.882;2024-02-04T06:20:10;100321.06;;;8.30;59.49
71857;BME280;63344;46.980;28.882;2024-02-04T06:22:37;100338.47;;;8.64;59.00
71857;BME280;63344;46.980;28.882;2024-02-04T06:25:05;100301.00;;;8.51;58.92
71857;BME280;63344;46.980;28.882;2024-02-04T06:27:33;100308.44;;;8.65;58.91
71857;BME280;63344;46.980;28.882;2024-02-04T06:30:01;100292.38;;;8.70;58.31
71857;BME280;63344;46.980;28.882;2024-02-04T06:32:28;100305.81;;;8.89;58.25
71857;BME280;63344;46.980;28.882;2024-02-04T06:34:56;100300.69;;;9.08;57.52
71857;BME280;63344;46.980;28.882;2024-02-04T06:37:25;100284.03;;;9.04;56.55
71857;BME280;63344;46.980;28.882;2024-02-04T06:39:54;100311.22;;;9.33;56.35
71857;BME280;63344;46.980;28.882;2024-02-04T06:42:22;100323.94;;;9.47;56.11
71857;BME280;63344;46.980;28.882;2024-02-04T06:44:49;100287.28;;;9.34;56.78
71857;BME280;63344;46.980;28.882;2024-02-04T06:47:16;100287.94;;;9.41;56.05
71857;BME280;63344;46.980;28.882;2024-02-04T06:49:44;100308.66;;;9.53;56.54
71857;BME280;63344;46.980;28.882;2024-02-04T06:52:13;100325.00;;;9.65;56.40
71857;BME280;63344;46.980;28.882;2024-02-04T06:54:40;100275.19;;;9.51;56.20
71857;BME280;63344;46.980;28.882;2024-02-04T06:57:08;100284.53;;;9.60;56.30
71857;BME280;63344;46.980;28.882;2024-02-04T06:59:35;100307.84;;;9.73;55.93
71857;BME280;63344;46.980;28.882;2024-02-04T07:02:03;100301.59;;;9.74;55.83
71857;BME280;63344;46.980;28.882;2024-02-04T07:04:30;100280.91;;;9.62;56.21
71857;BME280;63344;46.980;28.882;2024-02-04T07:06:57;100272.13;;;9.60;55.85
71857;BME280;63344;46.980;28.882;2024-02-04T07:09:25;100314.69;;;9.79;56.15
71857;BME280;63344;46.980;28.882;2024-02-04T07:11:52;100279.00;;;9.66;55.99
71857;BME280;63344;46.980;28.882;2024-02-04T07:14:19;100277.69;;;9.76;55.89
71857;BME280;63344;46.980;28.882;2024-02-04T07:16:46;100280.38;;;9.74;55.91
71857;BME280;63344;46.980;28.882;2024-02-04T07:19:14;100304.59;;;9.89;56.07
71857;BME280;63344;46.980;28.882;2024-02-04T07:21:42;100289.88;;;9.80;55.77
71857;BME280;63344;46.980;28.882;2024-02-04T07:24:11;100289.03;;;9.80;55.89
71857;BME280;63344;46.980;28.882;2024-02-04T07:26:38;100264.38;;;9.77;55.52
71857;BME280;63344;46.980;28.882;2024-02-04T07:29:06;100260.00;;;9.76;56.04
71857;BME280;63344;46.980;28.882;2024-02-04T07:31:35;100279.59;;;9.94;56.19
71857;BME280;63344;46.980;28.882;2024-02-04T07:34:05;100291.00;;;9.96;55.60
71857;BME280;63344;46.980;28.882;2024-02-04T07:36:34;100258.38;;;9.72;56.10
71857;BME280;63344;46.980;28.882;2024-02-04T07:39:03;100280.63;;;9.90;55.86
71857;BME280;63344;46.980;28.882;2024-02-04T07:42:00;100275.78;;;9.80;56.42
71857;BME280;63344;46.980;28.882;2024-02-04T07:44:35;100285.38;;;9.82;56.37
71857;BME280;63344;46.980;28.882;2024-02-04T07:47:05;100246.97;;;9.70;56.04
71857;BME280;63344;46.980;28.882;2024-02-04T07:49:34;100260.16;;;9.72;55.86
71857;BME280;63344;46.980;28.882;2024-02-04T07:52:01;100253.97;;;9.73;56.47
71857;BME280;63344;46.980;28.882;2024-02-04T07:54:29;100274.50;;;9.88;55.59
71857;BME280;63344;46.980;28.882;2024-02-04T07:56:56;100259.66;;;9.84;55.51
71857;BME280;63344;46.980;28.882;2024-02-04T07:59:23;100289.75;;;10.05;55.49
71857;BME280;63344;46.980;28.882;2024-02-04T08:01:51;100276.78;;;9.97;55.69
71857;BME280;63344;46.980;28.882;2024-02-04T08:04:21;100290.81;;;10.22;55.69
71857;BME280;63344;46.980;28.882;2024-02-04T08:06:48;100295.22;;;10.23;55.01
71857;BME280;63344;46.980;28.882;2024-02-04T08:09:16;100263.84;;;10.10;54.81
71857;BME280;63344;46.980;28.882;2024-02-04T08:11:45;100260.50;;;10.07;54.93
71857;BME280;63344;46.980;28.882;2024-02-04T08:14:12;100276.09;;;10.14;54.72
71857;BME280;63344;46.980;28.882;2024-02-04T08:16:41;100298.22;;;10.35;54.64
71857;BME280;63344;46.980;28.882;2024-02-04T08:19:39;100252.66;;;10.24;54.41
71857;BME280;63344;46.980;28.882;2024-02-04T08:22:09;100293.03;;;10.53;53.73
71857;BME280;63344;46.980;28.882;2024-02-04T08:24:37;100283.50;;;10.49;53.84
71857;BME280;63344;46.980;28.882;2024-02-04T08:27:05;100290.44;;;10.51;53.52
71857;BME280;63344;46.980;28.882;2024-02-04T08:29:32;100285.94;;;10.53;53.54
71857;BME280;63344;46.980;28.882;2024-02-04T08:32:00;100294.97;;;10.49;53.38
71857;BME280;63344;46.980;28.882;2024-02-04T08:34:29;100295.19;;;10.45;53.32
71857;BME280;63344;46.980;28.882;2024-02-04T08:36:56;100312.81;;;10.46;53.52
71857;BME280;63344;46.980;28.882;2024-02-04T08:39:24;100310.09;;;10.47;53.49
71857;BME280;63344;46.980;28.882;2024-02-04T08:41:53;100274.84;;;10.44;53.03
71857;BME280;63344;46.980;28.882;2024-02-04T08:44:21;100288.13;;;10.44;52.77
71857;BME280;63344;46.980;28.882;2024-02-04T08:47:05;100305.47;;;10.52;52.70
71857;BME280;63344;46.980;28.882;2024-02-04T08:49:32;100296.09;;;10.44;52.71
71857;BME280;63344;46.980;28.882;2024-02-04T08:52:04;100297.91;;;10.21;52.53
71857;BME280;63344;46.980;28.882;2024-02-04T08:54:33;100305.16;;;10.17;52.83
71857;BME280;63344;46.980;28.882;2024-02-04T08:57:02;100293.19;;;10.07;53.03
71857;BME280;63344;46.980;28.882;2024-02-04T08:59:30;100276.00;;;10.16;53.32
71857;BME280;63344;46.980;28.882;2024-02-04T09:01:57;100319.81;;;10.26;53.15
71857;BME280;63344;46.980;28.882;2024-02-04T09:04:27;100326.50;;;10.36;52.97
71857;BME280;63344;46.980;28.882;2024-02-04T09:06:55;100345.47;;;10.48;52.83
71857;BME280;63344;46.980;28.882;2024-02-04T09:09:23;100320.31;;;10.36;52.67
71857;BME280;63344;46.980;28.882;2024-02-04T09:11:50;100323.38;;;10.47;52.89
71857;BME280;63344;46.980;28.882;2024-02-04T09:14:17;100313.34;;;10.54;52.94
71857;BME280;63344;46.980;28.882;2024-02-04T09:16:45;100292.16;;;10.73;52.00
71857;BME280;63344;46.980;28.882;2024-02-04T09:19:12;100329.84;;;11.21;51.61
71857;BME280;63344;46.980;28.882;2024-02-04T09:22:20;100312.59;;;11.29;50.47
71857;BME280;63344;46.980;28.882;2024-02-04T09:25:31;100331.72;;;11.56;50.11
71857;BME280;63344;46.980;28.882;2024-02-04T09:28:16;100329.31;;;11.88;49.97
71857;BME280;63344;46.980;28.882;2024-02-04T09:34:40;100318.88;;;11.84;49.63
71857;BME280;63344;46.980;28.882;2024-02-04T09:37:07;100312.03;;;11.78;49.70
71857;BME280;63344;46.980;28.882;2024-02-04T09:39:35;100324.56;;;11.76;49.82
71857;BME280;63344;46.980;28.882;2024-02-04T09:42:05;100314.56;;;11.81;49.86
71857;BME280;63344;46.980;28.882;2024-02-04T09:44:34;100321.84;;;12.14;49.67
71857;BME280;63344;46.980;28.882;2024-02-04T09:47:03;100313.34;;;12.25;49.08
71857;BME280;63344;46.980;28.882;2024-02-04T09:49:31;100303.22;;;12.49;48.42
71857;BME280;63344;46.980;28.882;2024-02-04T09:52:00;100310.59;;;12.94;47.91
71857;BME280;63344;46.980;28.882;2024-02-04T09:54:31;100271.88;;;13.37;47.07
71857;BME280;63344;46.980;28.882;2024-02-04T09:57:01;100272.50;;;13.88;45.31
71857;BME280;63344;46.980;28.882;2024-02-04T09:59:29;100260.34;;;14.43;44.83
71857;BME280;63344;46.980;28.882;2024-02-04T10:01:57;100289.44;;;14.78;44.94
71857;BME280;63344;46.980;28.882;2024-02-04T10:04:27;100285.03;;;15.34;42.58
71857;BME280;63344;46.980;28.882;2024-02-04T10:06:55;100264.97;;;14.69;43.41
71857;BME280;63344;46.980;28.882;2024-02-04T10:09:23;100253.81;;;14.18;43.99
71857;BME280;63344;46.980;28.882;2024-02-04T10:11:51;100255.81;;;13.84;45.14
71857;BME280;63344;46.980;28.882;2024-02-04T10:14:20;100267.13;;;13.58;45.55
71857;BME280;63344;46.980;28.882;2024-02-04T10:16:47;100258.94;;;13.29;46.33
71857;BME280;63344;46.980;28.882;2024-02-04T10:19:15;100253.50;;;13.14;45.87
71857;BME280;63344;46.980;28.882;2024-02-04T10:21:44;100241.22;;;12.96;45.55
71857;BME280;63344;46.980;28.882;2024-02-04T10:24:13;100246.19;;;12.86;45.76
71857;BME280;63344;46.980;28.882;2024-02-04T10:27:04;100275.00;;;12.62;45.37
71857;BME280;63344;46.980;28.882;2024-02-04T10:29:37;100230.41;;;12.32;46.35
71857;BME280;63344;46.980;28.882;2024-02-04T10:32:09;100227.53;;;12.53;46.41
71857;BME280;63344;46.980;28.882;2024-02-04T10:34:37;100240.97;;;13.48;45.67
71857;BME280;63344;46.980;28.882;2024-02-04T10:37:06;100223.84;;;14.72;44.87
71857;BME280;63344;46.980;28.882;2024-02-04T10:39:36;100235.72;;;15.24;42.65
71857;BME280;63344;46.980;28.882;2024-02-04T10:42:04;100235.28;;;15.03;42.48
71857;BME280;63344;46.980;28.882;2024-02-04T10:44:35;100230.16;;;14.71;43.11
71857;BME280;63344;46.980;28.882;2024-02-04T10:47:16;100198.53;;;13.90;44.01
71857;BME280;63344;46.980;28.882;2024-02-04T10:49:50;100240.94;;;14.10;44.43
71857;BME280;63344;46.980;28.882;2024-02-04T10:52:20;100212.53;;;14.96;43.30
71857;BME280;63344;46.980;28.882;2024-02-04T10:54:50;100232.69;;;15.97;40.80
71857;BME280;63344;46.980;28.882;2024-02-04T10:57:20;100196.59;;;15.63;41.59
71857;BME280;63344;46.980;28.882;2024-02-04T10:59:54;100220.94;;;16.12;40.20
71857;BME280;63344;46.980;28.882;2024-02-04T11:02:23;100215.81;;;16.35;41.21
71857;BME280;63344;46.980;28.882;2024-02-04T11:04:52;100200.44;;;17.38;39.08
71857;BME280;63344;46.980;28.882;2024-02-04T11:07:21;100179.47;;;17.91;37.02
71857;BME280;63344;46.980;28.882;2024-02-04T11:09:50;100199.13;;;17.20;37.46
71857;BME280;63344;46.980;28.882;2024-02-04T11:12:18;100188.13;;;17.23;38.26
71857;BME280;63344;46.980;28.882;2024-02-04T11:14:51;100189.94;;;17.83;36.73
71857;BME280;63344;46.980;28.882;2024-02-04T11:25:55;100184.25;;;15.87;40.76
71857;BME280;63344;46.980;28.882;2024-02-04T11:28:26;100181.81;;;16.61;39.18
71857;BME280;63344;46.980;28.882;2024-02-04T11:30:57;100188.16;;;16.09;39.71
71857;BME280;63344;46.980;28.882;2024-02-04T11:33:24;100198.81;;;15.29;40.76
71857;BME280;63344;46.980;28.882;2024-02-04T11:36:18;100189.59;;;15.75;40.79
71857;BME280;63344;46.980;28.882;2024-02-04T11:38:48;100181.97;;;15.00;41.37
71857;BME280;63344;46.980;28.882;2024-02-04T11:41:24;100193.72;;;14.25;43.10
71857;BME280;63344;46.980;28.882;2024-02-04T11:43:55;100184.75;;;13.51;44.31
71857;BME280;63344;46.980;28.882;2024-02-04T11:46:32;100187.44;;;13.04;45.18
71857;BME280;63344;46.980;28.882;2024-02-04T11:49:01;100181.09;;;12.74;45.98
71857;BME280;63344;46.980;28.882;2024-02-04T11:51:30;100145.00;;;12.35;46.42
71857;BME280;63344;46.980;28.882;2024-02-04T11:53:58;100180.56;;;12.34;46.95
71857;BME280;63344;46.980;28.882;2024-02-04T11:56:26;100185.34;;;12.28;47.51
71857;BME280;63344;46.980;28.882;2024-02-04T11:58:54;100165.06;;;12.25;47.63
71857;BME280;63344;46.980;28.882;2024-02-04T12:01:24;100178.78;;;12.18;48.09
71857;BME280;63344;46.980;28.882;2024-02-04T12:03:52;100179.03;;;12.30;47.96
71857;BME280;63344;46.980;28.882;2024-02-04T12:06:20;100148.78;;;12.31;47.53
71857;BME280;63344;46.980;28.882;2024-02-04T12:08:47;100148.63;;;12.34;47.40
71857;BME280;63344;46.980;28.882;2024-02-04T12:11:16;100173.09;;;12.41;47.43
71857;BME280;63344;46.980;28.882;2024-02-04T12:13:45;100171.94;;;12.47;47.12
71857;BME280;63344;46.980;28.882;2024-02-04T12:16:13;100164.72;;;12.49;46.91
71857;BME280;63344;46.980;28.882;2024-02-04T12:18:50;100173.56;;;12.49;47.31
71857;BME280;63344;46.980;28.882;2024-02-04T12:21:19;100155.97;;;12.29;46.74
71857;BME280;63344;46.980;28.882;2024-02-04T12:23:50;100176.25;;;12.32;46.98
71857;BME280;63344;46.980;28.882;2024-02-04T12:26:18;100173.84;;;12.27;46.43
71857;BME280;63344;46.980;28.882;2024-02-04T12:28:45;100187.16;;;12.27;46.96
71857;BME280;63344;46.980;28.882;2024-02-04T12:31:20;100167.28;;;12.17;46.90
71857;BME280;63344;46.980;28.882;2024-02-04T12:33:56;100163.78;;;11.99;48.25
71857;BME280;63344;46.980;28.882;2024-02-04T12:36:30;100163.94;;;11.61;50.00
71857;BME280;63344;46.980;28.882;2024-02-04T12:39:00;100180.81;;;11.43;50.38
71857;BME280;63344;46.980;28.882;2024-02-04T12:41:29;100187.13;;;11.40;50.86
71857;BME280;63344;46.980;28.882;2024-02-04T12:43:58;100179.09;;;11.59;50.99
71857;BME280;63344;46.980;28.882;2024-02-04T12:46:29;100180.66;;;11.63;50.65
71857;BME280;63344;46.980;28.882;2024-02-04T12:48:57;100179.03;;;11.61;50.63
71857;BME280;63344;46.980;28.882;2024-02-04T12:51:32;100162.44;;;11.55;50.58
71857;BME280;63344;46.980;28.882;2024-02-04T12:54:20;100148.31;;;11.36;50.85
71857;BME280;63344;46.980;28.882;2024-02-04T12:56:51;100145.00;;;12.02;50.09
71857;BME280;63344;46.980;28.882;2024-02-04T12:59:31;100154.66;;;13.18;46.77
71857;BME280;63344;46.980;28.882;2024-02-04T13:02:04;100136.25;;;13.29;45.04
71857;BME280;63344;46.980;28.882;2024-02-04T13:04:35;100157.59;;;13.45;45.40
71857;BME280;63344;46.980;28.882;2024-02-04T13:07:11;100154.28;;;13.55;44.63
71857;BME280;63344;46.980;28.882;2024-02-04T13:09:44;100143.88;;;13.51;44.46
71857;BME280;63344;46.980;28.882;2024-02-04T13:12:14;100119.75;;;13.38;44.13
71857;BME280;63344;46.980;28.882;2024-02-04T13:14:42;100133.13;;;13.52;43.73
71857;BME280;63344;46.980;28.882;2024-02-04T13:17:09;100154.28;;;13.55;43.46